Time;durP1;ratioP1;P1;durP2;ratioP2;P2;SDS_P1;SDS_P2;PMS_P1;PMS_P2;Temp;Humidity;BMP_temperature;BMP_pressure;BME280_temperature;BME280_humidity;BME280_pressure;Samples;Min_cycle;Max_cycle;Signal;HPM_P1;HPM_P2
2023/05/04 00:00:59;;;;;;;7.20;6.60;;;11.00;99.90;;;;;;4993345;28;20186;-69
2023/05/04 00:03:24;;;;;;;6.77;6.10;;;10.90;99.90;;;;;;4993307;28;20242;-69
2023/05/04 00:05:50;;;;;;;6.87;6.20;;;11.00;99.90;;;;;;4993077;28;20203;-70
2023/05/04 00:08:16;;;;;;;7.17;6.50;;;10.90;99.90;;;;;;4992984;28;20178;-70
2023/05/04 00:10:42;;;;;;;6.57;5.97;;;10.90;99.90;;;;;;4993231;28;20195;-70
2023/05/04 00:13:07;;;;;;;6.90;6.03;;;10.80;99.90;;;;;;4993386;28;20493;-70
2023/05/04 00:15:33;;;;;;;7.17;6.20;;;10.70;99.90;;;;;;4992908;28;20207;-70
2023/05/04 00:17:58;;;;;;;9.40;6.47;;;10.70;99.90;;;;;;4993102;28;20510;-69
2023/05/04 00:20:24;;;;;;;9.20;5.70;;;10.70;99.90;;;;;;4992779;28;20180;-71
2023/05/04 00:22:49;;;;;;;6.87;6.17;;;10.70;99.90;;;;;;4993019;28;20167;-69
2023/05/04 00:25:15;;;;;;;6.83;6.13;;;10.60;99.90;;;;;;4992980;28;20227;-69
2023/05/04 00:27:40;;;;;;;8.60;7.43;;;10.70;99.90;;;;;;4992932;28;20218;-70
2023/05/04 00:30:07;;;;;;;7.43;6.83;;;10.70;99.90;;;;;;4992563;28;20667;-70
2023/05/04 00:32:33;;;;;;;7.40;6.70;;;10.70;99.90;;;;;;4992907;28;20198;-71
2023/05/04 00:34:59;;;;;;;9.60;7.90;;;10.80;99.90;;;;;;4992850;28;21112;-70
2023/05/04 00:37:24;;;;;;;8.60;7.53;;;10.80;99.90;;;;;;4993066;28;20207;-70
2023/05/04 00:39:50;;;;;;;9.30;8.07;;;10.80;99.90;;;;;;4992472;28;20502;-70
2023/05/04 00:42:15;;;;;;;8.20;7.30;;;10.70;99.90;;;;;;4992783;28;20546;-71
2023/05/04 00:44:41;;;;;;;8.03;7.20;;;10.80;99.90;;;;;;4992488;28;20254;-69
2023/05/04 00:47:07;;;;;;;8.17;7.07;;;10.90;99.90;;;;;;4992572;28;20211;-70
2023/05/04 00:49:33;;;;;;;8.83;7.87;;;10.90;99.90;;;;;;4992315;28;20168;-70
2023/05/04 00:52:00;;;;;;;9.20;8.30;;;11.00;99.90;;;;;;4992768;28;20489;-70
2023/05/04 00:54:26;;;;;;;11.53;8.40;;;11.10;99.90;;;;;;4992647;28;20415;-70
2023/05/04 00:56:52;;;;;;;9.53;8.63;;;11.10;99.90;;;;;;4992673;28;20439;-69
2023/05/04 00:59:18;;;;;;;8.50;7.60;;;11.00;99.90;;;;;;4995690;28;20422;-69
2023/05/04 01:01:43;;;;;;;8.73;7.93;;;11.00;99.90;;;;;;4996686;28;20637;-71
2023/05/04 01:04:09;;;;;;;9.73;8.80;;;11.00;99.90;;;;;;4996567;28;20183;-69
2023/05/04 01:06:44;;;;;;;9.60;8.20;;;11.00;99.90;;;;;;4996434;28;20203;-70
2023/05/04 01:09:27;;;;;;;10.43;8.00;;;11.00;99.90;;;;;;4996264;28;20422;-70
2023/05/04 01:12:16;;;;;;;8.00;7.30;;;10.80;99.90;;;;;;4996572;28;20415;-70
2023/05/04 01:14:42;;;;;;;9.37;8.37;;;10.80;99.90;;;;;;4996391;28;20434;-70
2023/05/04 01:17:08;;;;;;;9.40;8.10;;;10.70;99.90;;;;;;4996274;28;20472;-69
2023/05/04 01:19:35;;;;;;;11.37;9.73;;;10.70;99.90;;;;;;4996176;28;20447;-71
2023/05/04 01:22:00;;;;;;;10.63;9.50;;;10.60;99.90;;;;;;4996298;28;20522;-70
2023/05/04 01:24:27;;;;;;;9.23;8.33;;;10.50;99.90;;;;;;4996352;28;20266;-69
2023/05/04 01:27:01;;;;;;;9.00;8.10;;;10.40;99.90;;;;;;4996076;28;20262;-69
2023/05/04 01:29:41;;;;;;;10.80;9.77;;;10.40;99.90;;;;;;4995834;28;20430;-69
2023/05/04 01:32:07;;;;;;;9.83;8.83;;;10.30;99.90;;;;;;4996134;28;20415;-70
2023/05/04 01:34:36;;;;;;;11.07;9.57;;;10.20;99.90;;;;;;4996079;28;20414;-70
2023/05/04 01:37:02;;;;;;;10.60;8.43;;;10.10;99.90;;;;;;4995983;28;20434;-70
2023/05/04 01:39:28;;;;;;;11.00;9.90;;;10.10;99.90;;;;;;4995706;28;20924;-69
2023/05/04 01:41:54;;;;;;;10.40;9.00;;;10.20;99.90;;;;;;4996070;28;20450;-70
2023/05/04 01:44:20;;;;;;;10.53;9.00;;;10.20;99.90;;;;;;4995878;28;20465;-70
2023/05/04 01:46:45;;;;;;;10.67;9.67;;;10.20;99.90;;;;;;4995792;28;20212;-70
2023/05/04 01:49:11;;;;;;;10.33;9.30;;;10.20;99.90;;;;;;4995652;28;20183;-70
2023/05/04 01:51:37;;;;;;;9.80;8.80;;;10.20;99.90;;;;;;4995742;28;20171;-69
2023/05/04 01:54:02;;;;;;;13.70;10.63;;;10.20;99.90;;;;;;4995767;28;20176;-70
2023/05/04 01:56:28;;;;;;;10.03;9.00;;;10.20;99.90;;;;;;4995629;28;20202;-70
2023/05/04 01:58:53;;;;;;;14.33;9.33;;;10.20;99.90;;;;;;4995276;28;20183;-69
2023/05/04 02:01:19;;;;;;;11.10;9.90;;;10.10;99.90;;;;;;4995596;28;20242;-70
2023/05/04 02:03:44;;;;;;;10.87;9.70;;;10.10;99.90;;;;;;4995607;28;20258;-69
2023/05/04 02:06:10;;;;;;;11.17;10.07;;;10.10;99.90;;;;;;4995384;28;20219;-69
2023/05/04 02:08:36;;;;;;;13.13;10.00;;;10.10;99.90;;;;;;4995142;28;20532;-70
2023/05/04 02:11:01;;;;;;;13.47;10.33;;;10.00;99.90;;;;;;4994828;28;20544;-71
2023/05/04 02:13:26;;;;;;;13.50;12.10;;;10.00;99.90;;;;;;4995413;28;20737;-70
2023/05/04 02:15:52;;;;;;;13.33;10.47;;;10.00;99.90;;;;;;4995141;28;20711;-71
2023/05/04 02:18:17;;;;;;;12.43;11.13;;;9.90;99.90;;;;;;4994996;28;20230;-70
2023/05/04 02:20:43;;;;;;;11.27;10.17;;;9.90;99.90;;;;;;4995260;28;20556;-70
2023/05/04 02:23:08;;;;;;;13.40;10.47;;;9.90;99.90;;;;;;4995152;28;20182;-71
2023/05/04 02:25:34;;;;;;;12.53;10.53;;;9.80;99.90;;;;;;4995020;28;20823;-70
2023/05/04 02:28:00;;;;;;;13.00;10.20;;;9.70;99.90;;;;;;4995333;28;20226;-70
2023/05/04 02:30:25;;;;;;;12.67;11.37;;;9.70;99.90;;;;;;4994912;28;20199;-70
2023/05/04 02:32:51;;;;;;;15.90;13.10;;;9.70;99.90;;;;;;4995118;28;20639;-70
2023/05/04 02:35:16;;;;;;;14.33;11.60;;;9.70;99.90;;;;;;4994961;28;20650;-70
2023/05/04 02:37:42;;;;;;;13.13;10.57;;;9.70;99.90;;;;;;4994863;28;20180;-70
2023/05/04 02:40:08;;;;;;;13.63;11.70;;;9.70;99.90;;;;;;4994665;28;20175;-70
2023/05/04 02:42:33;;;;;;;13.37;11.10;;;9.70;99.90;;;;;;4994814;28;20187;-70
2023/05/04 02:44:59;;;;;;;13.93;11.30;;;9.70;99.90;;;;;;4994704;28;20438;-70
2023/05/04 02:47:24;;;;;;;12.47;9.80;;;9.70;99.90;;;;;;4994841;28;20195;-69
2023/05/04 02:49:50;;;;;;;12.53;11.30;;;9.70;99.90;;;;;;4994467;28;20179;-70
2023/05/04 02:52:16;;;;;;;12.70;11.40;;;9.70;99.90;;;;;;4994667;28;20171;-70
2023/05/04 02:54:41;;;;;;;13.00;11.70;;;9.70;99.90;;;;;;4994658;28;20443;-70
2023/05/04 02:57:07;;;;;;;11.90;10.70;;;9.70;99.90;;;;;;4994739;28;20299;-70
2023/05/04 02:59:32;;;;;;;12.87;11.57;;;9.70;99.90;;;;;;4994349;28;20176;-69
2023/05/04 03:01:58;;;;;;;13.23;11.80;;;9.70;99.90;;;;;;4994434;28;20180;-71
2023/05/04 03:04:23;;;;;;;12.20;10.90;;;9.60;99.90;;;;;;4994511;28;20183;-71
2023/05/04 03:06:49;;;;;;;16.33;12.77;;;9.50;99.90;;;;;;4994655;28;20254;-71
2023/05/04 03:09:14;;;;;;;22.93;17.77;;;9.50;99.90;;;;;;4994011;28;20522;-71
2023/05/04 03:11:40;;;;;;;19.00;13.33;;;9.50;99.90;;;;;;4994444;28;20617;-70
2023/05/04 03:14:06;;;;;;;16.07;13.00;;;9.50;99.90;;;;;;4994344;28;20637;-70
2023/05/04 03:16:31;;;;;;;15.80;11.87;;;9.40;99.90;;;;;;4994056;28;20469;-71
2023/05/04 03:18:57;;;;;;;12.97;11.57;;;9.40;99.90;;;;;;4993926;28;20186;-70
2023/05/04 03:21:23;;;;;;;13.17;10.50;;;9.30;99.90;;;;;;4993151;28;20187;-70
2023/05/04 03:23:48;;;;;;;15.00;12.40;;;9.20;99.90;;;;;;4994033;28;20431;-70
2023/05/04 03:26:14;;;;;;;11.97;10.77;;;9.20;99.90;;;;;;4993858;28;20211;-71
2023/05/04 03:28:40;;;;;;;12.87;11.13;;;9.20;99.90;;;;;;4993770;28;20180;-70
2023/05/04 03:31:05;;;;;;;12.87;11.53;;;9.10;99.90;;;;;;4994026;28;20175;-70
2023/05/04 03:33:30;;;;;;;13.03;11.70;;;9.10;99.90;;;;;;4993848;28;20180;-71
2023/05/04 03:35:56;;;;;;;14.30;12.67;;;9.00;99.90;;;;;;4993720;28;20196;-70
2023/05/04 03:38:21;;;;;;;12.80;11.50;;;9.00;99.90;;;;;;4993404;28;20665;-70
2023/05/04 03:40:47;;;;;;;15.90;13.53;;;9.00;99.90;;;;;;4993875;28;20667;-71
2023/05/04 03:43:12;;;;;;;17.07;14.37;;;8.90;99.90;;;;;;4993732;28;20592;-70
2023/05/04 03:45:38;;;;;;;14.97;13.37;;;8.90;99.90;;;;;;4993504;28;20215;-71
2023/05/04 03:48:04;;;;;;;12.43;10.63;;;8.90;99.90;;;;;;4993599;28;20180;-71
2023/05/04 03:50:30;;;;;;;14.67;12.83;;;8.90;99.90;;;;;;4993408;28;20175;-70
2023/05/04 03:52:56;;;;;;;13.10;11.80;;;8.90;99.90;;;;;;4993463;28;20667;-69
2023/05/04 03:55:21;;;;;;;13.73;11.97;;;8.80;99.90;;;;;;4993380;28;20430;-69
2023/05/04 03:57:47;;;;;;;14.10;12.57;;;8.80;99.90;;;;;;4993567;28;20179;-70
2023/05/04 04:00:13;;;;;;;13.27;11.87;;;8.80;99.90;;;;;;4993208;28;20176;-70
2023/05/04 04:02:38;;;;;;;14.90;12.40;;;8.80;99.90;;;;;;4993402;28;20226;-69
2023/05/04 04:05:05;;;;;;;14.40;12.67;;;8.70;99.90;;;;;;4993146;28;20423;-71
2023/05/04 04:07:32;;;;;;;14.70;12.50;;;8.70;99.90;;;;;;4992613;28;20175;-70
2023/05/04 04:09:57;;;;;;;15.00;12.10;;;8.70;99.90;;;;;;4993040;28;20505;-69
2023/05/04 04:12:23;;;;;;;14.70;12.83;;;8.70;99.90;;;;;;4993225;28;20502;-70
2023/05/04 04:14:50;;;;;;;13.57;12.17;;;8.80;99.90;;;;;;4993189;28;20172;-70
2023/05/04 04:17:16;;;;;;;16.40;12.67;;;8.70;99.90;;;;;;4993040;28;20252;-70
2023/05/04 04:19:41;;;;;;;13.57;12.00;;;8.70;99.90;;;;;;4992804;28;21027;-70
2023/05/04 04:22:07;;;;;;;16.83;13.43;;;8.70;99.90;;;;;;4993087;28;20176;-70
2023/05/04 04:24:32;;;;;;;14.30;12.80;;;8.70;99.90;;;;;;4993179;28;20186;-70
2023/05/04 04:26:58;;;;;;;19.70;13.73;;;8.70;99.90;;;;;;4992834;28;20202;-69
2023/05/04 04:29:24;;;;;;;14.47;13.07;;;8.80;99.90;;;;;;4992728;28;20612;-70
2023/05/04 04:31:50;;;;;;;14.40;11.87;;;8.80;99.90;;;;;;4992852;28;20510;-71
2023/05/04 04:34:15;;;;;;;14.93;12.30;;;8.90;99.90;;;;;;4992604;28;20172;-69
2023/05/04 04:36:40;;;;;;;14.50;12.80;;;8.90;99.90;;;;;;4992761;28;20234;-70
2023/05/04 04:39:06;;;;;;;15.67;12.80;;;9.00;99.90;;;;;;4992481;28;20541;-71
2023/05/04 04:41:32;;;;;;;14.23;12.77;;;9.00;99.90;;;;;;4992808;28;20171;-70
2023/05/04 04:43:57;;;;;;;16.17;13.70;;;9.20;99.90;;;;;;4992744;28;20415;-69
2023/05/04 04:46:23;;;;;;;18.83;14.23;;;9.30;99.90;;;;;;4992680;28;20250;-70
2023/05/04 04:48:49;;;;;;;14.63;11.97;;;9.40;99.90;;;;;;4992592;28;20171;-70
2023/05/04 04:51:14;;;;;;;14.00;12.60;;;9.50;99.90;;;;;;4991411;28;20198;-71
2023/05/04 04:53:40;;;;;;;15.10;13.50;;;9.50;99.90;;;;;;4993013;28;20671;-71
2023/05/04 04:56:08;;;;;;;15.63;12.67;;;9.60;99.90;;;;;;4992569;28;20334;-71
2023/05/04 04:58:34;;;;;;;13.37;12.07;;;9.60;99.90;;;;;;4991079;28;20684;-70
2023/05/04 05:01:03;;;;;;;15.17;13.00;;;9.70;99.90;;;;;;4992558;28;20427;-72
2023/05/04 05:03:28;;;;;;;19.50;12.30;;;9.70;99.90;;;;;;4992612;28;20191;-71
2023/05/04 05:05:54;;;;;;;14.93;13.40;;;9.80;99.90;;;;;;4992318;28;20561;-70
2023/05/04 05:08:20;;;;;;;18.80;14.90;;;9.90;99.90;;;;;;4992155;28;20195;-70
2023/05/04 05:10:46;;;;;;;16.73;13.20;;;10.00;99.90;;;;;;4992629;28;20168;-70
2023/05/04 05:13:11;;;;;;;14.00;12.50;;;10.10;99.90;;;;;;4992362;28;20179;-71
2023/05/04 05:15:37;;;;;;;20.30;14.17;;;10.20;99.90;;;;;;4992685;28;20227;-71
2023/05/04 05:18:02;;;;;;;18.33;13.30;;;10.40;99.90;;;;;;4992424;28;20171;-71
2023/05/04 05:20:28;;;;;;;14.60;13.00;;;10.50;99.90;;;;;;4992208;28;20179;-71
2023/05/04 05:22:54;;;;;;;14.67;13.27;;;10.70;99.90;;;;;;4992295;28;20279;-71
2023/05/04 05:25:19;;;;;;;17.70;15.87;;;10.80;99.90;;;;;;4992217;28;20654;-71
2023/05/04 05:27:45;;;;;;;16.43;14.63;;;10.80;99.90;;;;;;4992369;28;20223;-71
2023/05/04 05:30:11;;;;;;;15.33;13.83;;;10.90;99.90;;;;;;4992014;28;20175;-71
2023/05/04 05:32:37;;;;;;;17.80;12.93;;;11.10;99.90;;;;;;4992354;28;20256;-71
2023/05/04 05:35:03;;;;;;;20.40;14.37;;;11.30;99.90;;;;;;4992347;28;20672;-71
2023/05/04 05:37:31;;;;;;;18.67;14.87;;;11.40;99.90;;;;;;4992037;28;20457;-71
2023/05/04 05:39:56;;;;;;;15.70;13.97;;;11.60;99.90;;;;;;4991926;28;20422;-71
2023/05/04 05:42:22;;;;;;;15.83;14.33;;;11.70;99.90;;;;;;4992197;28;20419;-71
2023/05/04 05:44:47;;;;;;;16.63;14.10;;;11.90;99.90;;;;;;4991766;28;20675;-71
2023/05/04 05:47:13;;;;;;;14.77;13.10;;;12.00;99.90;;;;;;4995763;28;20203;-71
2023/05/04 05:49:39;;;;;;;18.43;14.53;;;12.10;99.90;;;;;;4995597;28;20180;-71
2023/05/04 05:52:05;;;;;;;15.53;13.70;;;12.30;99.90;;;;;;4995825;28;20468;-71
2023/05/04 05:54:34;;;;;;;14.73;13.33;;;12.30;99.90;;;;;;4995789;28;20414;-71
2023/05/04 05:56:59;;;;;;;16.50;14.63;;;12.40;99.90;;;;;;4995699;28;20199;-71
2023/05/04 05:59:25;;;;;;;17.23;15.30;;;12.60;99.90;;;;;;4995429;28;20429;-71
2023/05/04 06:01:50;;;;;;;15.70;13.87;;;12.60;99.90;;;;;;4995695;28;20176;-71
2023/05/04 06:04:16;;;;;;;15.50;13.90;;;12.80;99.90;;;;;;4995511;28;20182;-71
2023/05/04 06:06:41;;;;;;;18.03;14.53;;;13.00;99.90;;;;;;4995373;28;20242;-71
2023/05/04 06:09:07;;;;;;;16.30;14.10;;;13.40;99.90;;;;;;4995178;28;20653;-71
2023/05/04 06:11:32;;;;;;;16.80;13.60;;;13.50;99.90;;;;;;4991176;28;20180;-71
2023/05/04 06:13:58;;;;;;;19.20;13.00;;;13.80;99.90;;;;;;4964444;28;20229;-70
2023/05/04 06:16:23;;;;;;;22.57;15.50;;;14.00;99.90;;;;;;4967569;28;20674;-70
2023/05/04 06:18:50;;;;;;;14.47;12.93;;;14.20;99.90;;;;;;4975542;28;20180;-70
2023/05/04 06:21:16;;;;;;;15.20;13.73;;;14.30;99.90;;;;;;4975799;28;20211;-70
2023/05/04 06:23:43;;;;;;;15.50;14.00;;;14.30;99.90;;;;;;4975146;28;20942;-71
2023/05/04 06:26:08;;;;;;;14.67;13.13;;;14.40;99.90;;;;;;4974636;28;20219;-70
2023/05/04 06:28:34;;;;;;;15.47;14.03;;;14.40;99.90;;;;;;4980575;28;20428;-71
2023/05/04 06:31:01;;;;;;;15.47;13.87;;;14.50;99.90;;;;;;4975706;28;20176;-71
2023/05/04 06:33:26;;;;;;;16.10;14.40;;;14.50;99.90;;;;;;4975622;28;20173;-70
2023/05/04 06:35:52;;;;;;;16.00;14.10;;;14.60;99.90;;;;;;4975570;28;20436;-70
2023/05/04 06:38:18;;;;;;;16.50;14.83;;;14.50;99.90;;;;;;4975224;28;20178;-70
2023/05/04 06:40:44;;;;;;;16.70;14.00;;;14.50;99.90;;;;;;4975614;28;20176;-70
2023/05/04 06:43:09;;;;;;;16.30;13.43;;;14.70;99.90;;;;;;4975380;28;20176;-71
2023/05/04 06:45:35;;;;;;;15.10;13.70;;;14.80;99.90;;;;;;4975245;28;20300;-70
2023/05/04 06:48:02;;;;;;;17.13;12.80;;;14.80;99.90;;;;;;4975298;28;20181;-71
2023/05/04 06:50:27;;;;;;;14.03;12.67;;;14.90;99.90;;;;;;4974925;28;20226;-70
2023/05/04 06:53:10;;;;;;;14.50;13.10;;;15.30;99.90;;;;;;4975175;28;20460;-70
2023/05/04 06:55:36;;;;;;;15.10;13.80;;;15.50;99.90;;;;;;4974707;28;20247;-70
2023/05/04 06:58:03;;;;;;;16.13;12.87;;;15.50;99.90;;;;;;4975149;28;20434;-70
2023/05/04 07:00:28;;;;;;;15.67;14.40;;;15.50;99.90;;;;;;4974799;28;20510;-70
2023/05/04 07:02:54;;;;;;;13.27;12.07;;;15.70;99.90;;;;;;4975325;28;20507;-70
2023/05/04 07:05:21;;;;;;;15.73;14.43;;;15.60;99.90;;;;;;4975032;28;20176;-70
2023/05/04 07:07:47;;;;;;;13.83;12.63;;;15.60;99.90;;;;;;4974996;28;20544;-70
2023/05/04 07:10:13;;;;;;;13.17;11.97;;;15.90;99.90;;;;;;4974752;28;20434;-70
2023/05/04 07:12:40;;;;;;;13.57;12.27;;;16.40;99.90;;;;;;4974901;28;20169;-70
2023/05/04 07:15:07;;;;;;;14.10;12.87;;;16.60;99.90;;;;;;4974568;28;20423;-70
2023/05/04 07:17:33;;;;;;;14.20;12.87;;;16.50;99.90;;;;;;4968103;28;20446;-70
2023/05/04 07:20:00;;;;;;;13.70;12.40;;;16.30;99.90;;;;;;4975242;28;20805;-70
2023/05/04 07:22:25;;;;;;;14.60;13.17;;;16.40;99.90;;;;;;4975828;28;20187;-70
2023/05/04 07:24:51;;;;;;;13.90;12.70;;;16.40;99.90;;;;;;4994026;28;20426;-70
2023/05/04 07:27:17;;;;;;;12.87;11.57;;;16.60;99.90;;;;;;4993788;28;20689;-70
2023/05/04 07:29:42;;;;;;;11.90;10.80;;;16.80;99.90;;;;;;4993511;28;20198;-70
2023/05/04 07:32:08;;;;;;;12.60;11.50;;;17.00;99.90;;;;;;4993924;28;20184;-70
2023/05/04 07:34:34;;;;;;;12.17;10.90;;;17.10;99.90;;;;;;4992867;28;20183;-71
2023/05/04 07:37:02;;;;;;;11.90;10.80;;;17.20;99.90;;;;;;4974265;28;20219;-70
2023/05/04 07:39:28;;;;;;;12.20;11.20;;;17.30;99.90;;;;;;4974120;28;20427;-70
2023/05/04 07:41:53;;;;;;;11.67;10.63;;;17.30;99.90;;;;;;4974297;28;20431;-69
2023/05/04 07:44:19;;;;;;;12.27;11.27;;;17.20;99.90;;;;;;4973079;28;20204;-70
2023/05/04 07:46:44;;;;;;;11.70;10.60;;;17.50;99.90;;;;;;4974067;28;20208;-70
2023/05/04 07:49:10;;;;;;;11.97;10.87;;;17.70;99.90;;;;;;4973807;28;20180;-70
2023/05/04 07:51:36;;;;;;;13.40;12.20;;;17.90;99.90;;;;;;4990785;28;20183;-70
2023/05/04 07:54:02;;;;;;;10.73;9.93;;;18.00;99.90;;;;;;4993523;28;20633;-70
2023/05/04 07:56:27;;;;;;;11.07;10.20;;;18.00;99.90;;;;;;4993278;28;20512;-70
2023/05/04 07:58:53;;;;;;;11.03;9.90;;;18.30;99.90;;;;;;4992985;28;20181;-70
2023/05/04 08:01:18;;;;;;;10.43;9.60;;;18.40;99.90;;;;;;4993256;28;20237;-70
2023/05/04 08:03:44;;;;;;;11.50;10.40;;;18.70;99.90;;;;;;4993266;28;20190;-71
2023/05/04 08:06:09;;;;;;;10.87;10.00;;;18.70;99.90;;;;;;4993087;28;20207;-70
2023/05/04 08:08:35;;;;;;;10.37;9.50;;;18.70;99.90;;;;;;4992543;28;20190;-71
2023/05/04 08:11:01;;;;;;;10.07;9.17;;;19.00;98.90;;;;;;4992943;28;20175;-70
2023/05/04 08:13:26;;;;;;;10.37;9.57;;;19.10;97.80;;;;;;4973729;28;20191;-71
2023/05/04 08:15:52;;;;;;;9.70;9.00;;;19.40;98.60;;;;;;4973386;28;20215;-70
2023/05/04 08:18:18;;;;;;;9.60;8.90;;;19.30;96.30;;;;;;4973276;28;20180;-70
2023/05/04 08:20:43;;;;;;;9.90;8.97;;;19.30;97.60;;;;;;4973649;28;20184;-71
2023/05/04 08:23:09;;;;;;;11.47;10.67;;;19.50;96.00;;;;;;4973543;28;20436;-70
2023/05/04 08:25:34;;;;;;;9.23;8.53;;;19.80;96.40;;;;;;4973368;28;20575;-71
2023/05/04 08:28:00;;;;;;;11.57;9.67;;;19.90;94.60;;;;;;4973397;28;20165;-71
2023/05/04 08:30:26;;;;;;;9.90;9.03;;;19.80;94.30;;;;;;4973332;28;20176;-70
2023/05/04 08:32:54;;;;;;;10.80;9.73;;;19.50;96.00;;;;;;4973375;28;20545;-71
2023/05/04 08:35:20;;;;;;;10.63;9.70;;;19.70;94.60;;;;;;4973300;28;20210;-71
2023/05/04 08:37:46;;;;;;;10.07;9.23;;;19.70;93.00;;;;;;4973382;28;20448;-71
2023/05/04 08:40:13;;;;;;;9.90;9.00;;;19.50;94.20;;;;;;4972904;28;20423;-71
2023/05/04 08:42:39;;;;;;;9.87;9.07;;;19.60;94.40;;;;;;4973290;28;20482;-71
2023/05/04 08:45:05;;;;;;;11.10;10.10;;;19.80;94.40;;;;;;4973275;28;20507;-71
2023/05/04 08:47:31;;;;;;;11.27;10.17;;;19.50;94.20;;;;;;4973189;28;20478;-71
2023/05/04 08:49:57;;;;;;;9.57;8.77;;;19.60;95.40;;;;;;4972949;28;20420;-71
2023/05/04 08:52:24;;;;;;;14.83;10.50;;;20.00;92.90;;;;;;4973114;28;20188;-71
2023/05/04 08:54:53;;;;;;;9.47;8.70;;;20.10;92.00;;;;;;4973135;28;20172;-71
2023/05/04 08:57:21;;;;;;;9.47;8.67;;;19.90;92.60;;;;;;4972826;28;20476;-71
2023/05/04 08:59:52;;;;;;;9.13;8.40;;;19.80;93.60;;;;;;4971827;28;20433;-71
2023/05/04 09:02:20;;;;;;;10.40;9.50;;;20.50;95.20;;;;;;4973135;28;20424;-71
2023/05/04 09:04:46;;;;;;;13.83;9.03;;;20.60;91.00;;;;;;4973003;28;20502;-71
2023/05/04 09:07:11;;;;;;;11.27;10.17;;;21.10;90.90;;;;;;4973016;28;20557;-71
2023/05/04 09:09:37;;;;;;;11.07;10.10;;;21.20;89.60;;;;;;4972793;28;20177;-71
2023/05/04 09:12:03;;;;;;;11.10;10.20;;;21.00;87.70;;;;;;4973054;28;20173;-71
2023/05/04 09:14:33;;;;;;;9.57;8.70;;;21.10;87.00;;;;;;4973084;28;20638;-71
2023/05/04 09:17:00;;;;;;;10.00;9.17;;;21.30;87.00;;;;;;4972865;28;20459;-71
2023/05/04 09:19:32;;;;;;;9.60;7.90;;;21.60;85.50;;;;;;4973067;28;20427;-71
2023/05/04 09:22:01;;;;;;;9.00;8.30;;;22.00;85.10;;;;;;4976733;28;20455;-71
2023/05/04 09:24:27;;;;;;;9.20;8.50;;;22.20;83.00;;;;;;4976807;28;20425;-71
2023/05/04 09:26:53;;;;;;;10.00;9.00;;;22.50;83.60;;;;;;4976913;28;20533;-71
2023/05/04 09:29:20;;;;;;;8.07;7.37;;;22.90;82.80;;;;;;4976463;28;20927;-71
2023/05/04 09:31:48;;;;;;;9.00;8.30;;;23.30;79.20;;;;;;4976687;28;20168;-70
2023/05/04 09:34:14;;;;;;;7.27;6.77;;;23.40;77.70;;;;;;4964857;28;20424;-71
2023/05/04 09:36:43;;;;;;;8.30;7.50;;;23.40;74.60;;;;;;4957194;28;20435;-70
2023/05/04 09:39:10;;;;;;;8.23;7.53;;;23.40;71.70;;;;;;4962949;28;20442;-70
2023/05/04 09:41:35;;;;;;;8.20;7.60;;;23.80;70.30;;;;;;4966506;28;20459;-70
2023/05/04 09:44:02;;;;;;;7.90;7.30;;;23.60;67.40;;;;;;4974065;28;20482;-70
2023/05/04 09:46:28;;;;;;;8.40;7.63;;;23.60;68.80;;;;;;4976416;28;20580;-69
2023/05/04 09:48:55;;;;;;;7.83;7.13;;;23.70;66.70;;;;;;4976148;28;20416;-70
2023/05/04 09:51:22;;;;;;;7.60;7.00;;;23.80;65.70;;;;;;4976340;28;20191;-71
2023/05/04 09:53:49;;;;;;;7.63;6.93;;;24.60;64.80;;;;;;4976371;28;20423;-70
2023/05/04 09:56:37;;;;;;;7.57;6.87;;;25.20;63.10;;;;;;4972594;28;20595;-68
2023/05/04 09:59:04;;;;;;;7.90;7.27;;;25.50;59.80;;;;;;4956828;28;20543;-72
2023/05/04 10:01:30;;;;;;;7.67;7.07;;;26.00;58.00;;;;;;4959325;28;20428;-72
2023/05/04 10:03:56;;;;;;;8.10;7.40;;;25.50;57.90;;;;;;4955542;28;20430;-73
2023/05/04 10:06:22;;;;;;;7.97;7.20;;;26.60;56.10;;;;;;4956579;28;20981;-73
2023/05/04 10:08:49;;;;;;;8.53;6.90;;;26.50;55.30;;;;;;4985790;28;20187;-70
2023/05/04 10:11:17;;;;;;;6.87;6.13;;;26.20;54.60;;;;;;4995514;28;20920;-70
2023/05/04 10:13:50;;;;;;;7.40;6.90;;;26.60;53.90;;;;;;4995451;28;20415;-70
2023/05/04 10:16:34;;;;;;;6.40;5.90;;;26.70;52.00;;;;;;4995074;28;20458;-71
2023/05/04 10:19:12;;;;;;;11.13;6.13;;;27.00;51.60;;;;;;4995154;28;20414;-71
2023/05/04 10:21:53;;;;;;;5.93;5.43;;;28.50;50.00;;;;;;4995319;28;20798;-70
2023/05/04 10:24:42;;;;;;;6.70;5.80;;;29.60;46.00;;;;;;4995345;28;20445;-69
2023/05/04 10:27:12;;;;;;;5.40;5.00;;;30.00;44.90;;;;;;4995317;28;20887;-71
2023/05/04 10:29:38;;;;;;;5.73;5.23;;;30.50;43.90;;;;;;4995037;28;20418;-71
2023/05/04 10:32:06;;;;;;;5.60;5.20;;;30.70;42.00;;;;;;4994479;28;20855;-68
2023/05/04 10:34:33;;;;;;;5.20;4.80;;;30.20;40.90;;;;;;4994998;28;20426;-70
2023/05/04 10:37:00;;;;;;;5.70;5.30;;;29.70;40.40;;;;;;4994888;28;20454;-68
2023/05/04 10:39:28;;;;;;;4.87;4.47;;;28.80;40.90;;;;;;4973604;28;20866;-69
2023/05/04 10:42:06;;;;;;;6.40;5.80;;;29.80;41.70;;;;;;4956254;28;20455;-69
2023/05/04 10:44:34;;;;;;;6.40;5.67;;;30.20;39.60;;;;;;4956149;28;20426;-69
2023/05/04 10:47:02;;;;;;;6.20;5.70;;;31.30;50.20;;;;;;4955950;28;20491;-69
2023/05/04 10:49:28;;;;;;;5.83;5.43;;;29.80;49.90;;;;;;4955675;28;20421;-69
2023/05/04 10:52:11;;;;;;;5.63;5.23;;;30.00;50.40;;;;;;4955977;28;20416;-69
2023/05/04 10:54:39;;;;;;;5.67;5.27;;;29.30;50.60;;;;;;4956186;28;20532;-69
2023/05/04 10:57:07;;;;;;;6.27;5.57;;;29.10;51.00;;;;;;4955948;28;20476;-70
2023/05/04 10:59:33;;;;;;;7.53;5.93;;;30.10;50.50;;;;;;4955625;28;20460;-69
2023/05/04 11:02:00;;;;;;;6.70;6.20;;;31.30;49.20;;;;;;4954433;28;20575;-68
2023/05/04 11:04:26;;;;;;;4.83;4.50;;;33.00;35.60;;;;;;4955921;28;20192;-66
2023/05/04 11:06:57;;;;;;;5.63;4.60;;;33.20;35.30;;;;;;4955609;28;20468;-69
2023/05/04 11:09:22;;;;;;;5.40;5.10;;;33.30;34.50;;;;;;4955468;28;20197;-67
2023/05/04 11:11:48;;;;;;;5.77;5.30;;;33.50;34.00;;;;;;4955683;28;20962;-69
2023/05/04 11:14:27;;;;;;;5.60;5.10;;;33.90;32.70;;;;;;4955587;28;20169;-68
2023/05/04 11:17:10;;;;;;;5.83;5.43;;;34.20;31.80;;;;;;4955898;28;20223;-68
2023/05/04 11:19:45;;;;;;;5.30;4.83;;;35.20;31.90;;;;;;4955398;28;20425;-68
2023/05/04 11:22:12;;;;;;;5.67;5.27;;;36.00;31.10;;;;;;4955505;28;20507;-69
2023/05/04 11:24:42;;;;;;;5.20;4.57;;;36.60;30.00;;;;;;4955517;28;20522;-68
2023/05/04 11:27:20;;;;;;;5.40;4.93;;;36.50;29.30;;;;;;4955268;28;20485;-67
2023/05/04 11:29:53;;;;;;;5.20;4.53;;;36.20;29.40;;;;;;4955015;28;20424;-67
2023/05/04 11:32:18;;;;;;;5.87;5.30;;;35.20;30.00;;;;;;4960740;28;20429;-68
2023/05/04 11:34:47;;;;;;;5.30;4.93;;;35.30;29.30;;;;;;4965395;28;20482;-69
2023/05/04 11:37:13;;;;;;;4.90;4.60;;;34.90;29.60;;;;;;4964832;28;20220;-69
2023/05/04 11:39:38;;;;;;;5.00;4.50;;;34.70;29.50;;;;;;4962843;28;20962;-69
2023/05/04 11:42:06;;;;;;;6.67;5.67;;;35.00;29.30;;;;;;4963421;28;20554;-69
2023/05/04 11:44:32;;;;;;;4.97;4.30;;;35.50;29.30;;;;;;4965098;28;20168;-69
2023/05/04 11:46:58;;;;;;;4.60;4.30;;;36.30;29.00;;;;;;4963841;28;20460;-68
2023/05/04 11:49:26;;;;;;;4.53;4.23;;;36.20;28.40;;;;;;4963542;28;20724;-68
2023/05/04 11:51:51;;;;;;;5.50;4.63;;;36.80;28.40;;;;;;4965216;28;20447;-66
2023/05/04 11:54:23;;;;;;;5.40;5.00;;;36.20;28.50;;;;;;4963138;28;20429;-67
2023/05/04 11:56:49;;;;;;;6.93;4.97;;;36.30;28.20;;;;;;4963590;28;20216;-67
2023/05/04 11:59:14;;;;;;;6.50;5.57;;;34.60;29.20;;;;;;4963470;28;20428;-67
2023/05/04 12:01:40;;;;;;;7.20;5.97;;;34.90;29.70;;;;;;4961873;28;20179;-67
2023/05/04 12:04:06;;;;;;;5.43;5.03;;;34.70;29.50;;;;;;4969370;28;20177;-69
2023/05/04 12:06:32;;;;;;;5.40;5.00;;;33.70;28.70;;;;;;4973566;28;20200;-67
2023/05/04 12:09:05;;;;;;;5.00;4.70;;;33.20;29.00;;;;;;4980598;28;20419;-67
2023/05/04 12:11:31;;;;;;;4.33;4.03;;;34.30;29.40;;;;;;4993177;28;20172;-68
2023/05/04 12:14:23;;;;;;;4.50;4.20;;;35.60;28.30;;;;;;4993092;28;20504;-67
2023/05/04 12:16:56;;;;;;;3.97;3.77;;;35.00;27.30;;;;;;4992806;28;20489;-68
2023/05/04 12:19:22;;;;;;;5.83;5.50;;;35.20;26.60;;;;;;4992662;28;20430;-68
2023/05/04 12:21:52;;;;;;;5.00;4.70;;;36.40;27.60;;;;;;4980938;28;20427;-68
2023/05/04 12:24:22;;;;;;;5.13;4.70;;;36.60;27.00;;;;;;4973537;28;20180;-67
2023/05/04 12:26:47;;;;;;;5.93;5.43;;;36.30;27.70;;;;;;4973470;28;20463;-70
2023/05/04 12:29:13;;;;;;;6.20;4.97;;;37.20;27.00;;;;;;4973186;28;20507;-70
2023/05/04 12:31:38;;;;;;;6.53;6.03;;;38.50;27.30;;;;;;4973267;28;20165;-68
2023/05/04 12:34:04;;;;;;;4.67;4.37;;;39.10;26.50;;;;;;4973376;28;20183;-67
2023/05/04 12:36:30;;;;;;;3.87;3.67;;;39.00;26.00;;;;;;4973359;28;20279;-68